createdAt,value
2018-09-04T00:02:11.031Z,67.59
2018-09-04T00:04:40.089Z,68.76
2018-09-04T00:07:10.281Z,67.99
2018-09-04T00:09:39.211Z,70.00
2018-09-04T00:12:08.131Z,68.76
2018-09-04T00:14:37.006Z,67.84
2018-09-04T00:17:07.186Z,67.55
2018-09-04T00:19:36.090Z,67.89
2018-09-04T00:22:06.106Z,68.06
2018-09-04T00:24:35.047Z,69.32
2018-09-04T00:27:03.845Z,70.16
2018-09-04T00:29:32.831Z,69.19
2018-09-04T00:32:01.991Z,69.11
2018-09-04T00:34:32.213Z,69.50
2018-09-04T00:37:01.066Z,70.56
2018-09-04T00:39:29.991Z,69.64
2018-09-04T00:41:58.930Z,71.43
2018-09-04T00:44:27.848Z,72.39
2018-09-04T00:46:56.744Z,71.41
2018-09-04T00:49:25.759Z,71.76
2018-09-04T00:51:54.968Z,73.07
2018-09-04T00:54:23.872Z,72.05
2018-09-04T00:56:52.785Z,72.00
2018-09-04T00:59:21.751Z,72.72
2018-09-04T01:01:50.641Z,72.89
2018-09-04T01:04:19.607Z,72.81
2018-09-04T01:06:48.554Z,72.13
2018-09-04T01:09:19.647Z,73.27
2018-09-04T01:11:48.863Z,73.57
2018-09-04T01:14:17.763Z,73.06
2018-09-04T01:16:46.830Z,70.27
2018-09-04T01:19:15.958Z,69.26
2018-09-04T01:21:44.887Z,68.51
2018-09-04T01:24:13.737Z,67.28
2018-09-04T01:26:42.663Z,63.91
2018-09-04T01:29:11.687Z,64.14
2018-09-04T01:31:40.650Z,63.78
2018-09-04T01:34:09.619Z,66.50
2018-09-04T01:36:38.801Z,63.71
2018-09-04T01:39:08.171Z,62.27
2018-09-04T01:41:37.079Z,63.60
2018-09-04T01:44:06.103Z,64.84
2018-09-04T01:46:35.080Z,64.83
2018-09-04T01:49:04.019Z,65.74
2018-09-04T01:51:32.919Z,64.85
2018-09-04T01:54:01.821Z,66.75
2018-09-04T01:56:30.738Z,67.59
2018-09-04T01:58:59.686Z,70.02
2018-09-04T02:01:28.685Z,68.01
2018-09-04T02:03:57.632Z,69.63
2018-09-04T02:06:27.973Z,67.60
2018-09-04T02:08:56.899Z,65.90
2018-09-04T02:11:25.826Z,66.51
2018-09-04T02:13:54.944Z,66.58
2018-09-04T02:16:23.949Z,66.96
2018-09-04T02:18:52.807Z,68.93
2018-09-04T02:21:21.739Z,68.69
2018-09-04T02:23:50.862Z,70.19
2018-09-04T02:26:19.760Z,71.16
2018-09-04T02:28:48.642Z,71.89
2018-09-04T02:31:17.689Z,71.26
2018-09-04T02:33:46.562Z,69.67
2018-09-04T02:36:15.417Z,70.29
2018-09-04T02:38:44.402Z,70.21
2018-09-04T02:41:13.366Z,69.68
2018-09-04T02:43:42.422Z,72.26
2018-09-04T02:46:11.272Z,70.98
2018-09-04T02:48:40.163Z,71.15
2018-09-04T02:51:09.194Z,72.11
2018-09-04T02:53:38.593Z,73.61
2018-09-04T02:56:07.468Z,71.74
2018-09-04T02:58:36.504Z,71.03
2018-09-04T03:01:05.533Z,70.30
2018-09-04T03:03:34.465Z,71.66
2018-09-04T03:06:03.362Z,74.39
2018-09-04T03:08:32.388Z,74.53
2018-09-04T03:11:01.338Z,74.19
2018-09-04T03:13:30.353Z,72.83
2018-09-04T03:15:59.238Z,73.44
2018-09-04T03:18:28.098Z,72.31
2018-09-04T03:20:57.089Z,72.00
2018-09-04T03:23:26.145Z,70.99
2018-09-04T03:25:54.982Z,69.67
2018-09-04T03:28:23.993Z,71.75
2018-09-04T03:30:53.142Z,72.18
2018-09-04T03:33:22.054Z,73.07
2018-09-04T03:35:51.221Z,72.11
2018-09-04T03:38:20.128Z,72.56
2018-09-04T03:40:48.977Z,72.99
2018-09-04T03:43:17.947Z,72.97
2018-09-04T03:45:46.955Z,70.38
2018-09-04T03:48:15.928Z,68.63
2018-09-04T03:50:44.997Z,68.50
2018-09-04T03:53:13.918Z,66.66
2018-09-04T03:55:42.713Z,63.22
2018-09-04T03:58:11.682Z,60.45
2018-09-04T04:00:40.683Z,61.54
2018-09-04T04:03:09.698Z,68.23
2018-09-04T04:05:39.967Z,65.22
2018-09-04T04:08:08.931Z,62.58
2018-09-04T04:10:37.820Z,65.09
2018-09-04T04:13:06.904Z,68.98
2018-09-04T04:15:37.061Z,67.35
2018-09-04T04:18:06.560Z,61.69
2018-09-04T04:20:37.034Z,63.79
2018-09-04T04:23:07.487Z,64.20
2018-09-04T04:25:36.389Z,63.33
2018-09-04T04:28:06.726Z,61.40
2018-09-04T04:30:35.640Z,61.34
2018-09-04T04:33:04.742Z,58.69
2018-09-04T04:35:33.705Z,59.30
2018-09-04T04:38:02.620Z,60.67
2018-09-04T04:40:31.533Z,60.89
2018-09-04T04:43:01.734Z,63.11
2018-09-04T04:45:30.629Z,63.72
2018-09-04T04:47:59.656Z,60.18
2018-09-04T04:50:28.748Z,63.18
2018-09-04T04:52:57.788Z,63.82
2018-09-04T04:55:26.756Z,64.58
2018-09-04T04:57:55.618Z,65.33
2018-09-04T05:00:25.974Z,65.68
2018-09-04T05:02:54.935Z,66.31
2018-09-04T05:05:23.898Z,68.36
2018-09-04T05:07:52.847Z,71.16
2018-09-04T05:10:21.657Z,70.67
2018-09-04T05:12:50.685Z,70.51
2018-09-04T05:15:19.593Z,71.28
2018-09-04T05:17:48.571Z,70.04
2018-09-04T05:20:23.084Z,70.25
2018-09-04T05:22:52.014Z,70.90
2018-09-04T05:25:21.136Z,70.32
2018-09-04T05:27:50.235Z,70.05
2018-09-04T05:30:20.717Z,68.26
2018-09-04T05:32:54.678Z,68.86
2018-09-04T05:35:23.768Z,68.37
2018-09-04T05:37:52.768Z,68.72
2018-09-04T05:40:21.771Z,67.66
2018-09-04T05:42:58.285Z,66.72
2018-09-04T05:45:30.106Z,66.26
2018-09-04T05:48:12.305Z,67.96
2018-09-04T05:50:41.374Z,67.67
2018-09-04T05:53:10.360Z,67.07
2018-09-04T05:55:39.283Z,66.54
2018-09-04T05:58:08.246Z,67.20
2018-09-04T06:00:46.637Z,65.76
2018-09-04T06:03:15.635Z,65.32
2018-09-04T06:05:44.563Z,63.93
2018-09-04T06:08:13.477Z,63.46
2018-09-04T06:10:42.345Z,63.01
2018-09-04T06:13:11.368Z,62.81
2018-09-04T06:15:40.218Z,62.47
2018-09-04T06:18:09.291Z,61.37
2018-09-04T06:20:38.264Z,61.10
2018-09-04T06:23:07.535Z,61.57
2018-09-04T06:25:39.196Z,60.47
2018-09-04T06:28:08.106Z,60.50
2018-09-04T06:30:37.131Z,60.33
2018-09-04T06:33:06.075Z,61.27
2018-09-04T06:35:35.056Z,60.05
2018-09-04T06:38:03.971Z,59.62
2018-09-04T06:40:32.873Z,59.51
2018-09-04T06:43:01.806Z,58.95
2018-09-04T06:45:30.839Z,57.73
2018-09-04T06:47:59.790Z,58.09
2018-09-04T06:50:28.750Z,56.21
2018-09-04T06:52:57.664Z,55.18
2018-09-04T06:55:27.923Z,53.84
2018-09-04T06:57:56.865Z,55.91
2018-09-04T07:00:25.758Z,54.58
2018-09-04T07:02:55.931Z,53.34
2018-09-04T07:05:24.888Z,53.24
2018-09-04T07:07:53.868Z,53.31
2018-09-04T07:10:22.801Z,53.02
2018-09-04T07:12:52.993Z,52.58
2018-09-04T07:15:21.913Z,52.98
2018-09-04T07:17:50.811Z,52.54
2018-09-04T07:20:21.204Z,52.93
2018-09-04T07:22:50.311Z,52.07
2018-09-04T07:25:19.218Z,51.74
2018-09-04T07:27:48.493Z,51.51
2018-09-04T07:30:17.397Z,51.10
2018-09-04T07:32:46.480Z,50.49
2018-09-04T07:35:16.972Z,50.33
2018-09-04T07:37:45.879Z,49.28
2018-09-04T07:40:14.809Z,48.85
2018-09-04T07:42:43.737Z,48.06
2018-09-04T07:45:12.681Z,48.38
2018-09-04T07:47:41.496Z,48.82
2018-09-04T07:50:12.408Z,48.30
2018-09-04T07:52:41.313Z,48.22
2018-09-04T07:55:10.213Z,47.79
2018-09-04T07:57:41.551Z,46.89
2018-09-04T08:00:10.684Z,45.90
2018-09-04T08:02:39.627Z,45.87
2018-09-04T08:05:08.613Z,45.63
2018-09-04T08:07:37.727Z,45.86
2018-09-04T08:10:06.725Z,46.42
2018-09-04T08:12:35.603Z,45.49
2018-09-04T08:15:04.617Z,45.01
2018-09-04T08:17:33.585Z,44.47
2018-09-04T08:20:02.573Z,47.03
2018-09-04T08:22:31.421Z,46.11
2018-09-04T08:25:00.379Z,45.77
2018-09-04T08:27:29.289Z,44.57
2018-09-04T08:29:59.552Z,43.78
2018-09-04T08:32:28.546Z,44.47
2018-09-04T08:34:57.476Z,43.63
2018-09-04T08:37:26.342Z,43.41
2018-09-04T08:39:56.585Z,42.56
2018-09-04T08:42:25.512Z,42.56
2018-09-04T08:44:54.420Z,42.40
2018-09-04T08:47:23.433Z,40.99
2018-09-04T08:49:52.281Z,40.96
2018-09-04T08:52:21.373Z,41.67
2018-09-04T08:54:51.816Z,41.57
2018-09-04T08:57:20.812Z,40.68
2018-09-04T08:59:49.809Z,40.51
2018-09-04T09:02:18.761Z,39.94
2018-09-04T09:04:47.722Z,40.67
2018-09-04T09:07:16.689Z,40.31
2018-09-04T09:09:45.710Z,39.32
2018-09-04T09:12:14.649Z,38.26
2018-09-04T09:14:43.589Z,38.83
2018-09-04T09:17:13.901Z,36.97
2018-09-04T09:19:42.864Z,37.73
2018-09-04T09:22:11.737Z,37.14
2018-09-04T09:24:40.779Z,36.64
2018-09-04T09:27:10.063Z,36.12
2018-09-04T09:29:38.957Z,35.34
2018-09-04T09:32:07.886Z,35.51
2018-09-04T09:34:36.805Z,33.34
2018-09-04T09:37:05.834Z,33.49
2018-09-04T09:39:34.879Z,31.96
2018-09-04T09:42:03.899Z,30.87
2018-09-04T09:44:32.833Z,30.69
2018-09-04T09:47:03.782Z,30.96
2018-09-04T09:49:33.526Z,29.95
2018-09-04T09:52:02.480Z,29.69
2018-09-04T09:54:31.500Z,29.47
2018-09-04T09:57:00.469Z,29.25
2018-09-04T09:59:29.489Z,27.61
2018-09-04T10:02:03.484Z,28.16
2018-09-04T10:04:33.933Z,28.08
2018-09-04T10:07:02.792Z,27.70
2018-09-04T10:09:31.702Z,28.18
2018-09-04T10:12:00.800Z,27.45
2018-09-04T10:14:29.730Z,27.71
2018-09-04T10:16:59.975Z,27.60
2018-09-04T10:19:28.922Z,27.58
2018-09-04T10:21:57.831Z,27.16
2018-09-04T10:24:26.761Z,26.92
2018-09-04T10:26:55.803Z,28.99
2018-09-04T10:29:24.687Z,29.36
2018-09-04T10:31:53.529Z,29.38
2018-09-04T10:34:23.579Z,27.70
2018-09-04T10:36:52.416Z,27.12
2018-09-04T10:39:26.547Z,26.83
2018-09-04T10:41:55.399Z,26.72
2018-09-04T10:44:24.377Z,25.62
2018-09-04T10:46:56.821Z,26.47
2018-09-04T10:49:25.862Z,27.36
2018-09-04T10:51:54.737Z,26.93
2018-09-04T10:54:24.918Z,26.67
2018-09-04T10:56:53.797Z,26.16
2018-09-04T10:59:22.619Z,25.70
2018-09-04T11:01:51.473Z,26.02
2018-09-04T11:04:20.295Z,26.04
2018-09-04T11:06:50.454Z,24.80
2018-09-04T11:09:19.406Z,24.94
2018-09-04T11:11:48.254Z,25.19
2018-09-04T11:14:17.232Z,25.52
2018-09-04T11:16:47.355Z,26.30
2018-09-04T11:19:16.141Z,26.27
2018-09-04T11:21:44.953Z,26.67
2018-09-04T11:24:14.989Z,27.53
2018-09-04T11:26:43.808Z,27.93
2018-09-04T11:29:13.441Z,26.51
2018-09-04T11:31:42.312Z,26.39
2018-09-04T11:34:11.285Z,26.01
2018-09-04T11:36:40.109Z,26.79
2018-09-04T11:39:11.842Z,26.11
2018-09-04T11:41:40.766Z,24.37
2018-09-04T11:44:09.578Z,25.29
2018-09-04T11:46:39.746Z,25.53
2018-09-04T11:49:08.555Z,27.08
2018-09-04T11:51:37.355Z,26.75
2018-09-04T11:54:06.485Z,26.12
2018-09-04T11:56:40.082Z,26.89
2018-09-04T12:01:47.273Z,25.96
2018-09-04T12:04:17.466Z,25.75
2018-09-04T12:06:47.825Z,26.57
2018-09-04T12:09:16.690Z,26.39
2018-09-04T12:11:50.834Z,25.52
2018-09-04T12:14:19.734Z,26.54
2018-09-04T12:16:48.575Z,28.70
2018-09-04T12:19:18.977Z,27.95
2018-09-04T12:21:47.984Z,28.21
2018-09-04T12:24:16.940Z,27.19
2018-09-04T12:26:45.905Z,28.11
2018-09-04T12:29:14.786Z,28.40
2018-09-04T12:31:43.771Z,28.69
2018-09-04T12:34:14.140Z,29.73
2018-09-04T12:36:43.034Z,29.58
2018-09-04T12:39:11.885Z,30.26
2018-09-04T12:41:40.737Z,30.36
2018-09-04T12:44:09.676Z,30.19
2018-09-04T12:46:38.611Z,29.55
2018-09-04T12:49:07.557Z,29.46
2018-09-04T12:51:36.545Z,28.34
2018-09-04T12:54:05.368Z,26.88
2018-09-04T12:56:34.196Z,25.95
2018-09-04T12:59:03.049Z,25.56
2018-09-04T13:01:31.917Z,25.24
2018-09-04T13:04:00.773Z,26.81
2018-09-04T13:06:29.622Z,25.74
2018-09-04T13:08:58.479Z,26.98
2018-09-04T13:11:27.346Z,26.36
2018-09-04T13:13:56.192Z,25.29
2018-09-04T13:16:25.174Z,26.48
2018-09-04T13:18:54.079Z,25.14
2018-09-04T13:21:24.831Z,26.32
2018-09-04T13:23:53.608Z,25.92
2018-09-04T13:26:22.460Z,26.35
2018-09-04T13:28:51.422Z,26.50
2018-09-04T13:31:20.239Z,27.44
2018-09-04T13:33:49.200Z,27.62
2018-09-04T13:36:19.313Z,29.04
2018-09-04T13:38:48.249Z,29.27
2018-09-04T13:41:17.092Z,29.87
2018-09-04T13:43:45.973Z,29.46
2018-09-04T13:46:14.918Z,28.75
2018-09-04T13:48:43.816Z,28.60
2018-09-04T13:51:12.778Z,31.78
2018-09-04T13:53:41.699Z,31.93
2018-09-04T13:56:10.559Z,32.50
2018-09-04T13:58:39.377Z,33.22
2018-09-04T14:01:08.234Z,33.13
2018-09-04T14:03:37.046Z,33.00
2018-09-04T14:06:06.123Z,32.87
2018-09-04T14:08:36.528Z,32.82
2018-09-04T14:11:05.403Z,34.72
2018-09-04T14:13:34.198Z,33.35
2018-09-04T14:16:04.831Z,31.31
2018-09-04T14:18:33.671Z,31.37
2018-09-04T14:21:02.608Z,31.41
2018-09-04T14:23:31.374Z,30.02
2018-09-04T14:26:00.233Z,29.19
2018-09-04T14:28:43.997Z,28.59
2018-09-04T14:30:57.950Z,29.46
2018-09-04T14:33:26.884Z,29.64
2018-09-04T14:35:55.872Z,29.24
2018-09-04T14:38:25.905Z,28.02
2018-09-04T14:40:54.757Z,26.78
2018-09-04T14:43:23.697Z,26.59
2018-09-04T14:45:54.008Z,27.22
2018-09-04T14:48:24.549Z,26.78
2018-09-04T14:50:53.880Z,27.77
2018-09-04T14:53:25.172Z,26.96
2018-09-04T14:55:53.979Z,26.63
2018-09-04T14:58:22.814Z,27.60
2018-09-04T15:00:53.116Z,26.93
2018-09-04T15:03:22.784Z,26.69
2018-09-04T15:05:51.812Z,27.01
2018-09-04T15:08:20.569Z,26.47
2018-09-04T15:10:49.536Z,27.67
2018-09-04T15:13:18.425Z,28.40
2018-09-04T15:15:47.260Z,29.29
2018-09-04T15:18:16.126Z,28.77
2018-09-04T15:20:45.019Z,28.37
2018-09-04T15:23:13.897Z,29.12
2018-09-04T15:25:42.859Z,29.02
2018-09-04T15:28:11.798Z,28.99
2018-09-04T15:30:40.658Z,29.96
2018-09-04T15:33:09.588Z,30.17
2018-09-04T15:35:39.837Z,30.80
2018-09-04T15:38:11.420Z,32.73
2018-09-04T15:40:41.524Z,34.19
2018-09-04T15:43:10.408Z,34.96
2018-09-04T15:45:39.269Z,35.60
2018-09-04T15:48:08.176Z,35.47
2018-09-04T15:50:38.521Z,34.63
2018-09-04T15:53:07.618Z,34.58
2018-09-04T15:55:36.454Z,34.64
2018-09-04T15:58:05.385Z,34.37
2018-09-04T16:00:34.176Z,34.99
2018-09-04T16:03:03.261Z,34.25
2018-09-04T16:05:32.226Z,33.70
2018-09-04T16:08:01.106Z,34.83
2018-09-04T16:10:30.020Z,34.90
2018-09-04T16:12:58.919Z,36.07
2018-09-04T16:15:27.781Z,39.07
2018-09-04T16:17:56.652Z,39.83
2018-09-04T16:20:25.530Z,41.31
2018-09-04T16:22:54.356Z,42.76
2018-09-04T16:25:23.272Z,42.84
2018-09-04T16:27:53.534Z,43.35
2018-09-04T16:30:22.373Z,42.82
2018-09-04T16:32:51.260Z,42.96
2018-09-04T16:35:20.115Z,43.83
2018-09-04T16:37:48.982Z,43.06
2018-09-04T16:40:17.938Z,42.20
2018-09-04T16:42:46.904Z,40.85
2018-09-04T16:45:15.791Z,39.35
2018-09-04T16:47:44.629Z,39.64
2018-09-04T16:50:14.878Z,39.74
2018-09-04T16:52:43.784Z,38.88
2018-09-04T16:55:12.680Z,39.03
2018-09-04T16:57:41.588Z,39.56
2018-09-04T17:00:11.699Z,40.61
2018-09-04T17:02:40.629Z,40.61
2018-09-04T17:05:09.618Z,40.90
2018-09-04T17:07:38.485Z,41.24
2018-09-04T17:10:07.537Z,40.49
2018-09-04T17:12:36.432Z,40.92
2018-09-04T17:15:05.399Z,40.45
2018-09-04T17:17:34.217Z,41.00
2018-09-04T17:20:03.182Z,41.50
2018-09-04T17:22:32.047Z,42.03
2018-09-04T17:25:00.877Z,42.12
2018-09-04T17:27:29.707Z,41.91
2018-09-04T17:29:58.573Z,41.54
2018-09-04T17:32:27.534Z,41.93
2018-09-04T17:34:56.420Z,41.82
2018-09-04T17:37:25.377Z,42.03
2018-09-04T17:39:54.532Z,41.37
2018-09-04T17:42:23.317Z,40.85
2018-09-04T17:44:52.521Z,40.82
2018-09-04T17:47:21.591Z,40.54
2018-09-04T17:49:50.416Z,40.06
2018-09-04T17:52:19.252Z,40.79
2018-09-04T17:54:49.385Z,39.72
2018-09-04T17:57:18.356Z,40.05
2018-09-04T17:59:47.238Z,40.53
2018-09-04T18:02:16.186Z,40.22
2018-09-04T18:04:45.065Z,39.88
2018-09-04T18:07:13.937Z,40.45
2018-09-04T18:09:44.087Z,40.46
2018-09-04T18:12:12.981Z,39.86
2018-09-04T18:14:41.808Z,41.49
2018-09-04T18:17:10.774Z,40.61
2018-09-04T18:19:39.761Z,41.12
2018-09-04T18:22:08.628Z,42.13
2018-09-04T18:24:37.541Z,41.69
2018-09-04T18:27:06.423Z,41.88
2018-09-04T18:29:35.261Z,43.98
2018-09-04T18:32:04.425Z,43.38
2018-09-04T18:34:33.322Z,42.61
2018-09-04T18:37:03.513Z,42.28
2018-09-04T18:39:32.498Z,42.97
2018-09-04T18:42:01.380Z,41.75
2018-09-04T18:44:30.562Z,41.10
2018-09-04T18:46:59.458Z,42.90
2018-09-04T18:49:28.349Z,43.37
2018-09-04T18:51:57.249Z,43.24
2018-09-04T18:54:26.078Z,42.65
2018-09-04T18:56:54.925Z,42.96
2018-09-04T18:59:25.508Z,43.25
2018-09-04T19:01:54.282Z,42.76
2018-09-04T19:04:23.111Z,42.79
2018-09-04T19:06:53.388Z,44.46
2018-09-04T19:09:22.270Z,44.56
2018-09-04T19:11:51.153Z,44.25
2018-09-04T19:14:20.050Z,44.47
2018-09-04T19:16:48.929Z,46.01
2018-09-04T19:19:17.875Z,47.66
2018-09-04T19:21:46.817Z,47.71
2018-09-04T19:24:16.501Z,48.07
2018-09-04T19:26:45.378Z,48.86
2018-09-04T19:29:14.186Z,49.72
2018-09-04T19:31:43.149Z,49.42
2018-09-04T19:34:11.997Z,50.16
2018-09-04T19:36:40.892Z,51.03
2018-09-04T19:39:10.479Z,51.74
2018-09-04T19:41:40.654Z,52.03
2018-09-04T19:44:09.499Z,51.40
2018-09-04T19:46:39.701Z,51.20
2018-09-04T19:49:08.709Z,51.03
2018-09-04T19:51:37.486Z,51.95
2018-09-04T19:54:07.796Z,52.02
2018-09-04T19:56:42.761Z,51.93
2018-09-04T19:59:11.698Z,52.34
2018-09-04T20:01:41.087Z,52.24
2018-09-04T20:04:09.953Z,52.80
2018-09-04T20:06:40.252Z,53.16
2018-09-04T20:09:09.246Z,53.32
2018-09-04T20:11:38.169Z,53.49
2018-09-04T20:14:07.010Z,53.96
2018-09-04T20:16:35.867Z,53.44
2018-09-04T20:19:06.117Z,54.54
2018-09-04T20:21:35.054Z,55.98
2018-09-04T20:24:03.941Z,55.33
2018-09-04T20:26:34.242Z,55.70
2018-09-04T20:29:04.375Z,54.74
2018-09-04T20:31:33.358Z,54.28
2018-09-04T20:34:02.194Z,52.91
2018-09-04T20:36:32.461Z,52.71
2018-09-04T20:39:01.430Z,52.04
2018-09-04T20:41:30.397Z,52.53
2018-09-04T20:44:00.804Z,52.47
2018-09-04T20:46:29.708Z,51.50
2018-09-04T20:48:58.564Z,51.48
2018-09-04T20:51:27.381Z,51.63
2018-09-04T20:53:56.336Z,51.14
2018-09-04T20:56:25.348Z,51.06
2018-09-04T20:59:05.137Z,50.76
2018-09-04T21:01:46.009Z,50.36
2018-09-04T21:04:26.106Z,51.30
2018-09-04T21:06:54.868Z,50.35
2018-09-04T21:09:39.976Z,50.83
2018-09-04T21:12:09.189Z,50.56
2018-09-04T21:14:39.383Z,50.60
2018-09-04T21:17:08.360Z,50.44
2018-09-04T21:19:37.286Z,50.08
2018-09-04T21:22:06.277Z,50.40
2018-09-04T21:24:35.141Z,50.09
2018-09-04T21:27:04.070Z,49.86
2018-09-04T21:29:33.101Z,49.60
2018-09-04T21:32:01.874Z,49.19
2018-09-04T21:34:30.804Z,48.83
2018-09-04T21:36:59.800Z,49.01
2018-09-04T21:39:28.618Z,48.16
2018-09-04T21:41:57.522Z,47.80
2018-09-04T21:44:26.436Z,47.52
2018-09-04T21:46:55.217Z,47.15
2018-09-04T21:49:24.083Z,46.87
2018-09-04T21:51:52.991Z,47.26
2018-09-04T21:54:21.874Z,46.62
2018-09-04T21:56:50.710Z,45.97
2018-09-04T21:59:19.589Z,46.27
2018-09-04T22:01:48.575Z,47.06
2018-09-04T22:04:17.649Z,47.33
2018-09-04T22:06:46.855Z,46.96
2018-09-04T22:09:15.795Z,46.67
2018-09-04T22:11:44.697Z,46.53
2018-09-04T22:14:13.537Z,48.89
2018-09-04T22:16:42.391Z,48.36
2018-09-04T22:19:11.801Z,49.41
2018-09-04T22:21:40.713Z,47.97
2018-09-04T22:24:09.577Z,48.16
2018-09-04T22:26:38.531Z,47.74
2018-09-04T22:29:07.429Z,48.45
2018-09-04T22:31:36.289Z,48.48
2018-09-04T22:34:05.252Z,48.68
2018-09-04T22:36:34.139Z,48.19
2018-09-04T22:39:03.097Z,47.89
2018-09-04T22:41:31.922Z,48.14
2018-09-04T22:44:00.672Z,47.68
2018-09-04T22:46:29.523Z,48.09
2018-09-04T22:48:58.714Z,47.48
2018-09-04T22:51:32.545Z,47.32
2018-09-04T22:54:01.447Z,47.81
2018-09-04T22:56:30.341Z,47.72
2018-09-04T22:58:59.563Z,46.08
2018-09-04T23:01:28.457Z,45.05
2018-09-04T23:03:57.351Z,45.07
2018-09-04T23:06:27.705Z,46.65
2018-09-04T23:08:56.590Z,47.33
2018-09-04T23:11:25.448Z,46.87
2018-09-04T23:13:54.334Z,47.76
2018-09-04T23:16:23.211Z,49.40
2018-09-04T23:18:52.075Z,48.95
2018-09-04T23:21:20.970Z,49.73
2018-09-04T23:23:49.888Z,50.14
2018-09-04T23:26:18.770Z,50.29
2018-09-04T23:28:47.758Z,50.62
2018-09-04T23:31:16.565Z,50.32
2018-09-04T23:33:45.497Z,50.62
2018-09-04T23:36:14.389Z,50.51
2018-09-04T23:38:43.237Z,50.34
2018-09-04T23:41:12.085Z,50.31
2018-09-04T23:43:40.927Z,50.52
2018-09-04T23:46:09.763Z,50.83
2018-09-04T23:48:38.643Z,50.82
2018-09-04T23:51:07.561Z,51.27
2018-09-04T23:53:36.446Z,51.53
2018-09-04T23:56:05.463Z,52.45
2018-09-04T23:58:34.362Z,53.20
